createdAt,value
2022-09-06T00:00:51.311Z,218.00
2022-09-06T00:01:51.273Z,219.00
2022-09-06T00:02:51.322Z,199.00
2022-09-06T00:03:51.307Z,208.00
2022-09-06T00:04:51.334Z,217.00
2022-09-06T00:05:51.257Z,198.00
2022-09-06T00:06:51.950Z,196.00
2022-09-06T00:07:51.245Z,207.00
2022-09-06T00:08:51.258Z,201.00
2022-09-06T00:09:51.178Z,218.00
2022-09-06T00:10:51.186Z,221.00
2022-09-06T00:11:51.173Z,218.00
2022-09-06T00:12:52.452Z,222.00
2022-09-06T00:13:51.132Z,207.00
2022-09-06T00:14:51.115Z,205.00
2022-09-06T00:15:51.204Z,212.00
2022-09-06T00:16:51.083Z,213.00
2022-09-06T00:17:51.101Z,209.00
2022-09-06T00:18:51.065Z,209.00
2022-09-06T00:19:51.050Z,216.00
2022-09-06T00:20:51.067Z,213.00
2022-09-06T00:21:51.015Z,211.00
2022-09-06T00:22:51.000Z,209.00
2022-09-06T00:23:50.983Z,217.00
2022-09-06T00:24:51.047Z,215.00
2022-09-06T00:25:50.979Z,216.00
2022-09-06T00:26:50.958Z,210.00
2022-09-06T00:27:50.934Z,206.00
2022-09-06T00:28:50.949Z,217.00
2022-09-06T00:29:50.925Z,204.00
2022-09-06T00:30:50.971Z,209.00
2022-09-06T00:31:50.892Z,226.00
2022-09-06T00:32:50.891Z,215.00
2022-09-06T00:33:50.869Z,219.00
2022-09-06T00:34:50.868Z,214.00
2022-09-06T00:35:50.841Z,213.00
2022-09-06T00:36:50.819Z,207.00
2022-09-06T00:37:50.822Z,211.00
2022-09-06T00:38:50.806Z,219.00
2022-09-06T00:39:50.837Z,234.00
2022-09-06T00:40:50.799Z,216.00
2022-09-06T00:41:50.746Z,213.00
2022-09-06T00:42:50.759Z,215.00
2022-09-06T00:43:50.734Z,215.00
2022-09-06T00:44:50.715Z,217.00
2022-09-06T00:45:50.742Z,210.00
2022-09-06T00:46:50.764Z,212.00
2022-09-06T00:47:51.878Z,212.00
2022-09-06T00:48:50.674Z,218.00
2022-09-06T00:49:50.669Z,219.00
2022-09-06T00:50:50.674Z,209.00
2022-09-06T00:51:50.633Z,214.00
2022-09-06T00:52:50.659Z,214.00
2022-09-06T00:53:50.617Z,223.00
2022-09-06T00:54:50.593Z,219.00
2022-09-06T00:55:50.573Z,216.00
2022-09-06T00:56:50.562Z,220.00
2022-09-06T00:57:50.560Z,214.00
2022-09-06T00:58:50.528Z,204.00
2022-09-06T00:59:50.516Z,205.00
2022-09-06T01:00:50.494Z,208.00
2022-09-06T01:01:50.626Z,208.00
2022-09-06T01:02:50.550Z,211.00
2022-09-06T01:03:50.474Z,200.00
2022-09-06T01:04:50.453Z,197.00
2022-09-06T01:05:54.282Z,195.00
2022-09-06T01:06:50.447Z,203.00
2022-09-06T01:07:50.410Z,204.00
2022-09-06T01:08:50.404Z,206.00
2022-09-06T01:09:50.384Z,203.00
2022-09-06T01:10:50.375Z,202.00
2022-09-06T01:11:50.369Z,203.00
2022-09-06T01:12:50.356Z,216.00
2022-09-06T01:13:50.327Z,210.00
2022-09-06T01:14:50.333Z,205.00
2022-09-06T01:15:50.673Z,212.00
2022-09-06T01:16:50.327Z,206.00
2022-09-06T01:17:50.266Z,198.00
2022-09-06T01:18:50.260Z,198.00
2022-09-06T01:19:50.275Z,202.00
2022-09-06T01:20:50.239Z,205.00
2022-09-06T01:21:50.295Z,200.00
2022-09-06T01:22:50.226Z,196.00
2022-09-06T01:23:50.189Z,191.00
2022-09-06T01:24:50.203Z,191.00
2022-09-06T01:25:50.181Z,203.00
2022-09-06T01:26:50.171Z,194.00
2022-09-06T01:27:50.159Z,189.00
2022-09-06T01:28:50.129Z,184.00
2022-09-06T01:29:50.168Z,197.00
2022-09-06T01:30:50.154Z,202.00
2022-09-06T01:31:50.082Z,195.00
2022-09-06T01:32:50.079Z,179.00
2022-09-06T01:33:50.072Z,176.00
2022-09-06T01:34:50.034Z,176.00
2022-09-06T01:35:50.032Z,191.00
2022-09-06T01:37:09.004Z,183.00
2022-09-06T01:37:49.998Z,174.00
2022-09-06T01:38:50.006Z,183.00
2022-09-06T01:39:50.070Z,187.00
2022-09-06T01:40:49.983Z,189.00
2022-09-06T01:41:49.980Z,199.00
2022-09-06T01:42:51.942Z,183.00
2022-09-06T01:43:49.908Z,181.00
2022-09-06T01:44:49.933Z,189.00
2022-09-06T01:45:49.924Z,200.00
2022-09-06T01:46:49.878Z,188.00
2022-09-06T01:47:49.890Z,178.00
2022-09-06T01:48:49.871Z,183.00
2022-09-06T01:49:49.849Z,183.00
2022-09-06T01:50:49.823Z,181.00
2022-09-06T01:51:49.827Z,183.00
2022-09-06T01:52:49.812Z,177.00
2022-09-06T01:53:49.797Z,180.00
2022-09-06T01:54:49.790Z,173.00
2022-09-06T01:55:49.746Z,178.00
2022-09-06T01:56:49.767Z,181.00
2022-09-06T01:57:49.737Z,184.00
2022-09-06T01:58:49.788Z,193.00
2022-09-06T01:59:49.694Z,195.00
2022-09-06T02:00:49.690Z,185.00
2022-09-06T02:01:49.735Z,196.00
2022-09-06T02:02:49.775Z,196.00
2022-09-06T02:03:49.688Z,196.00
2022-09-06T02:04:49.663Z,204.00
2022-09-06T02:05:49.654Z,202.00
2022-09-06T02:06:49.610Z,199.00
2022-09-06T02:07:49.587Z,197.00
2022-09-06T02:08:49.583Z,197.00
2022-09-06T02:09:49.562Z,192.00
2022-09-06T02:10:49.585Z,170.00
2022-09-06T02:11:49.581Z,166.00
2022-09-06T02:12:49.521Z,175.00
2022-09-06T02:13:49.511Z,177.00
2022-09-06T02:14:49.494Z,184.00
2022-09-06T02:15:49.503Z,180.00
2022-09-06T02:16:49.999Z,183.00
2022-09-06T02:17:49.482Z,168.00
2022-09-06T02:18:49.484Z,166.00
2022-09-06T02:19:49.448Z,166.00
2022-09-06T02:20:49.450Z,173.00
2022-09-06T02:21:49.409Z,172.00
2022-09-06T02:22:52.021Z,176.00
2022-09-06T02:23:49.391Z,176.00
2022-09-06T02:24:49.403Z,174.00
2022-09-06T02:25:49.371Z,167.00
2022-09-06T02:26:49.360Z,168.00
2022-09-06T02:27:49.368Z,175.00
2022-09-06T02:28:49.318Z,174.00
2022-09-06T02:29:49.572Z,162.00
2022-09-06T02:30:49.347Z,164.00
2022-09-06T02:31:49.317Z,171.00
2022-09-06T02:32:49.262Z,176.00
2022-09-06T02:33:49.237Z,182.00
2022-09-06T02:34:49.251Z,188.00
2022-09-06T02:35:49.234Z,186.00
2022-09-06T02:36:49.215Z,182.00
2022-09-06T02:37:49.240Z,178.00
2022-09-06T02:38:49.197Z,174.00
2022-09-06T02:39:49.231Z,177.00
2022-09-06T02:40:49.176Z,182.00
2022-09-06T02:41:49.148Z,183.00
2022-09-06T02:42:49.151Z,198.00
2022-09-06T02:43:49.118Z,185.00
2022-09-06T02:44:49.117Z,181.00
2022-09-06T02:45:49.141Z,183.00
2022-09-06T02:46:49.082Z,179.00
2022-09-06T02:47:49.080Z,183.00
2022-09-06T02:48:49.085Z,177.00
2022-09-06T02:49:49.039Z,178.00
2022-09-06T02:50:49.034Z,192.00
2022-09-06T02:51:49.016Z,191.00
2022-09-06T02:52:49.022Z,192.00
2022-09-06T02:53:49.030Z,196.00
2022-09-06T02:54:48.987Z,185.00
2022-09-06T02:55:48.954Z,179.00
2022-09-06T02:56:52.254Z,178.00
2022-09-06T02:57:52.120Z,201.00
2022-09-06T02:58:48.933Z,207.00
2022-09-06T02:59:48.903Z,204.00
2022-09-06T03:00:48.959Z,207.00
2022-09-06T03:01:48.875Z,204.00
2022-09-06T03:02:48.935Z,204.00
2022-09-06T03:03:48.902Z,201.00
2022-09-06T03:04:48.826Z,198.00
2022-09-06T03:05:48.804Z,195.00
2022-09-06T03:06:48.812Z,200.00
2022-09-06T03:07:48.782Z,198.00
2022-09-06T03:08:48.788Z,198.00
2022-09-06T03:09:48.764Z,198.00
2022-09-06T03:10:48.798Z,200.00
2022-09-06T03:11:48.767Z,192.00
2022-09-06T03:12:48.719Z,183.00
2022-09-06T03:13:48.714Z,195.00
2022-09-06T03:14:53.013Z,199.00
2022-09-06T03:15:48.698Z,204.00
2022-09-06T03:16:48.738Z,206.00
2022-09-06T03:17:48.672Z,199.00
2022-09-06T03:18:48.625Z,200.00
2022-09-06T03:19:48.631Z,201.00
2022-09-06T03:20:48.642Z,207.00
2022-09-06T03:21:48.642Z,206.00
2022-09-06T03:22:48.593Z,201.00
2022-09-06T03:23:48.613Z,198.00
2022-09-06T03:24:48.592Z,207.00
2022-09-06T03:25:48.563Z,202.00
2022-09-06T03:26:48.540Z,200.00
2022-09-06T03:27:48.603Z,190.00
2022-09-06T03:28:48.533Z,195.00
2022-09-06T03:29:48.527Z,192.00
2022-09-06T03:30:48.513Z,189.00
2022-09-06T03:31:48.721Z,199.00
2022-09-06T03:32:48.432Z,185.00
2022-09-06T03:33:48.472Z,190.00
2022-09-06T03:34:48.425Z,190.00
2022-09-06T03:35:48.433Z,187.00
2022-09-06T03:36:48.412Z,197.00
2022-09-06T03:37:48.410Z,184.00
2022-09-06T03:38:48.398Z,184.00
2022-09-06T03:39:48.431Z,182.00
2022-09-06T03:40:48.335Z,184.00
2022-09-06T03:41:48.348Z,184.00
2022-09-06T03:42:51.727Z,183.00
2022-09-06T03:43:48.325Z,175.00
2022-09-06T03:44:48.292Z,168.00
2022-09-06T03:45:48.330Z,169.00
2022-09-06T03:46:48.256Z,170.00
2022-09-06T03:47:48.254Z,165.00
2022-09-06T03:48:48.248Z,166.00
2022-09-06T03:49:48.267Z,160.00
2022-09-06T03:50:48.199Z,162.00
2022-09-06T03:51:48.210Z,161.00
2022-09-06T03:52:48.191Z,162.00
2022-09-06T03:53:48.230Z,160.00
2022-09-06T03:54:48.138Z,163.00
2022-09-06T03:55:48.166Z,163.00
2022-09-06T03:56:48.175Z,158.00
2022-09-06T03:57:48.145Z,155.00
2022-09-06T03:58:48.105Z,155.00
2022-09-06T03:59:48.103Z,156.00
2022-09-06T04:00:48.153Z,152.00
2022-09-06T04:01:48.077Z,156.00
2022-09-06T04:02:48.141Z,162.00
2022-09-06T04:03:48.050Z,157.00
2022-09-06T04:04:48.011Z,157.00
2022-09-06T04:05:48.093Z,152.00
2022-09-06T04:06:47.972Z,148.00
2022-09-06T04:07:47.982Z,150.00
2022-09-06T04:08:47.956Z,152.00
2022-09-06T04:09:47.952Z,155.00
2022-09-06T04:10:47.946Z,153.00
2022-09-06T04:11:47.918Z,147.00
2022-09-06T04:12:47.928Z,150.00
2022-09-06T04:13:47.896Z,152.00
2022-09-06T04:14:47.914Z,153.00
2022-09-06T04:15:47.883Z,148.00
2022-09-06T04:16:48.090Z,148.00
2022-09-06T04:17:51.761Z,148.00
2022-09-06T04:18:47.829Z,148.00
2022-09-06T04:19:47.829Z,149.00
2022-09-06T04:20:47.806Z,150.00
2022-09-06T04:21:47.837Z,151.00
2022-09-06T04:22:47.781Z,150.00
2022-09-06T04:23:47.748Z,152.00
2022-09-06T04:24:47.752Z,152.00
2022-09-06T04:25:47.730Z,153.00
2022-09-06T04:26:47.726Z,153.00
2022-09-06T04:27:47.749Z,157.00
2022-09-06T04:28:47.693Z,155.00
2022-09-06T04:29:47.709Z,156.00
2022-09-06T04:30:47.678Z,155.00
2022-09-06T04:31:47.742Z,152.00
2022-09-06T04:32:47.682Z,153.00
2022-09-06T04:33:47.648Z,153.00
2022-09-06T04:34:47.669Z,153.00
2022-09-06T04:35:47.618Z,152.00
2022-09-06T04:36:48.468Z,156.00
2022-09-06T04:37:47.589Z,153.00
2022-09-06T04:38:47.559Z,153.00
2022-09-06T04:39:47.633Z,157.00
2022-09-06T04:40:47.545Z,158.00
2022-09-06T04:41:47.526Z,161.00
2022-09-06T04:42:47.506Z,164.00
2022-09-06T04:43:47.550Z,164.00
2022-09-06T04:44:47.466Z,165.00
2022-09-06T04:45:47.512Z,167.00
2022-09-06T04:46:47.451Z,169.00
2022-09-06T04:47:47.472Z,171.00
2022-09-06T04:48:47.422Z,169.00
2022-09-06T04:49:47.458Z,165.00
2022-09-06T04:50:47.408Z,163.00
2022-09-06T04:51:47.394Z,161.00
2022-09-06T04:52:47.357Z,158.00
2022-09-06T04:53:47.410Z,160.00
2022-09-06T04:54:47.334Z,157.00
2022-09-06T04:55:47.329Z,158.00
2022-09-06T04:56:47.336Z,155.00
2022-09-06T04:57:51.681Z,156.00
2022-09-06T04:58:47.293Z,158.00
2022-09-06T04:59:47.296Z,159.00
2022-09-06T05:00:47.318Z,158.00
2022-09-06T05:01:47.270Z,156.00
2022-09-06T05:02:47.219Z,156.00
2022-09-06T05:03:47.240Z,158.00
2022-09-06T05:04:47.206Z,163.00
2022-09-06T05:05:47.200Z,166.00
2022-09-06T05:06:47.188Z,163.00
2022-09-06T05:07:47.174Z,180.00
2022-09-06T05:08:47.168Z,184.00
2022-09-06T05:09:47.186Z,186.00
2022-09-06T05:10:47.140Z,188.00
2022-09-06T05:11:47.099Z,175.00
2022-09-06T05:12:47.091Z,181.00
2022-09-06T05:13:47.079Z,186.00
2022-09-06T05:14:47.071Z,190.00
2022-09-06T05:15:47.083Z,185.00
2022-09-06T05:16:47.107Z,186.00
2022-09-06T05:17:47.070Z,188.00
2022-09-06T05:18:47.034Z,189.00
2022-09-06T05:19:46.996Z,183.00
2022-09-06T05:20:46.994Z,188.00
2022-09-06T05:21:46.988Z,192.00
2022-09-06T05:22:47.015Z,195.00
2022-09-06T05:23:46.966Z,190.00
2022-09-06T05:24:46.940Z,189.00
2022-09-06T05:25:46.958Z,195.00
2022-09-06T05:26:46.962Z,202.00
2022-09-06T05:27:46.906Z,203.00
2022-09-06T05:28:46.925Z,203.00
2022-09-06T05:29:46.861Z,215.00
2022-09-06T05:30:46.839Z,211.00
2022-09-06T05:31:47.193Z,214.00
2022-09-06T05:32:51.712Z,218.00
2022-09-06T05:33:46.824Z,215.00
2022-09-06T05:34:46.842Z,218.00
2022-09-06T05:35:46.792Z,218.00
2022-09-06T05:36:46.785Z,224.00
2022-09-06T05:37:46.780Z,197.00
2022-09-06T05:38:46.743Z,213.00
2022-09-06T05:39:46.842Z,216.00
2022-09-06T05:40:46.713Z,215.00
2022-09-06T05:41:46.727Z,220.00
2022-09-06T05:42:46.690Z,216.00
2022-09-06T05:43:46.703Z,201.00
2022-09-06T05:44:46.657Z,201.00
2022-09-06T05:45:46.736Z,211.00
2022-09-06T05:46:46.635Z,229.00
2022-09-06T05:47:46.674Z,217.00
2022-09-06T05:48:46.635Z,215.00
2022-09-06T05:49:46.603Z,223.00
2022-09-06T05:50:46.603Z,247.00
2022-09-06T05:51:46.588Z,222.00
2022-09-06T05:52:46.555Z,214.00
2022-09-06T05:53:46.573Z,216.00
2022-09-06T05:54:46.574Z,217.00
2022-09-06T05:55:46.518Z,213.00
2022-09-06T05:56:46.516Z,205.00
2022-09-06T05:57:46.526Z,228.00
2022-09-06T05:58:46.471Z,221.00
2022-09-06T05:59:46.463Z,225.00
2022-09-06T06:00:46.500Z,228.00
2022-09-06T06:01:46.621Z,230.00
2022-09-06T06:02:46.494Z,230.00
2022-09-06T06:03:46.414Z,232.00
2022-09-06T06:04:46.419Z,234.00
2022-09-06T06:05:46.383Z,236.00
2022-09-06T06:06:46.631Z,235.00
2022-09-06T06:07:46.362Z,237.00
2022-09-06T06:08:46.393Z,236.00
2022-09-06T06:09:46.350Z,230.00
2022-09-06T06:10:46.339Z,232.00
2022-09-06T06:11:46.349Z,233.00
2022-09-06T06:12:52.254Z,230.00
2022-09-06T06:13:46.315Z,234.00
2022-09-06T06:14:46.267Z,233.00
2022-09-06T06:15:46.262Z,232.00
2022-09-06T06:16:46.298Z,228.00
2022-09-06T06:17:46.257Z,232.00
2022-09-06T06:18:50.085Z,232.00
2022-09-06T06:19:46.210Z,233.00
2022-09-06T06:20:46.188Z,233.00
2022-09-06T06:21:46.177Z,233.00
2022-09-06T06:22:46.195Z,233.00
2022-09-06T06:23:46.146Z,234.00
2022-09-06T06:24:46.135Z,234.00
2022-09-06T06:25:46.157Z,237.00
2022-09-06T06:26:46.120Z,237.00
2022-09-06T06:27:46.095Z,239.00
2022-09-06T06:28:46.134Z,239.00
2022-09-06T06:29:46.090Z,242.00
2022-09-06T06:30:46.071Z,243.00
2022-09-06T06:31:46.118Z,243.00
2022-09-06T06:32:46.051Z,243.00
2022-09-06T06:33:46.033Z,245.00
2022-09-06T06:34:46.014Z,246.00
2022-09-06T06:35:45.995Z,245.00
2022-09-06T06:36:45.966Z,245.00
2022-09-06T06:37:45.963Z,244.00
2022-09-06T06:38:45.960Z,245.00
2022-09-06T06:39:46.029Z,246.00
2022-09-06T06:40:45.913Z,244.00
2022-09-06T06:41:45.932Z,246.00
2022-09-06T06:42:45.977Z,246.00
2022-09-06T06:43:45.875Z,245.00
2022-09-06T06:44:45.879Z,245.00
2022-09-06T06:45:45.937Z,245.00
2022-09-06T06:46:46.099Z,245.00
2022-09-06T06:48:00.397Z,246.00
2022-09-06T06:48:45.820Z,246.00
2022-09-06T06:49:45.820Z,246.00
2022-09-06T06:50:45.793Z,247.00
2022-09-06T06:51:45.792Z,244.00
2022-09-06T06:52:45.761Z,243.00
2022-09-06T06:53:45.754Z,244.00
2022-09-06T06:54:45.721Z,246.00
2022-09-06T06:55:45.764Z,247.00
2022-09-06T06:56:45.744Z,249.00
2022-09-06T06:57:45.699Z,247.00
2022-09-06T06:58:45.716Z,246.00
2022-09-06T06:59:45.666Z,246.00
2022-09-06T07:00:45.725Z,246.00
2022-09-06T07:01:45.737Z,248.00
2022-09-06T07:02:45.642Z,247.00
2022-09-06T07:03:45.628Z,247.00
2022-09-06T07:04:45.586Z,247.00
2022-09-06T07:07:45.587Z,249.00
2022-09-06T07:08:45.603Z,248.00
2022-09-06T07:10:45.528Z,250.00
2022-09-06T07:11:45.596Z,253.00
2022-09-06T07:12:45.535Z,251.00
2022-09-06T07:13:45.528Z,252.00
2022-09-06T07:14:45.879Z,251.00
2022-09-06T07:15:45.575Z,248.00
2022-09-06T07:16:45.590Z,246.00
2022-09-06T07:17:45.445Z,247.00
2022-09-06T07:18:45.499Z,248.00
2022-09-06T07:21:45.629Z,251.00
2022-09-06T07:22:45.358Z,251.00
2022-09-06T07:24:45.385Z,250.00
2022-09-06T07:25:45.299Z,250.00
2022-09-06T07:27:49.301Z,250.00
2022-09-06T07:28:45.291Z,251.00
2022-09-06T07:29:45.255Z,251.00
2022-09-06T07:30:45.282Z,255.00
2022-09-06T07:32:45.215Z,254.00
2022-09-06T07:33:45.196Z,251.00
2022-09-06T07:34:45.213Z,249.00
2022-09-06T07:35:45.165Z,248.00
2022-09-06T07:36:45.175Z,246.00
2022-09-06T07:37:45.230Z,246.00
2022-09-06T07:38:45.136Z,246.00
2022-09-06T07:39:45.180Z,247.00
2022-09-06T07:40:45.129Z,244.00
2022-09-06T07:41:45.104Z,247.00
2022-09-06T07:42:45.283Z,249.00
2022-09-06T07:43:45.065Z,248.00
2022-09-06T07:44:45.081Z,248.00
2022-09-06T07:45:45.072Z,247.00
2022-09-06T07:46:45.210Z,248.00
2022-09-06T07:48:00.342Z,250.00
2022-09-06T07:48:45.025Z,251.00
2022-09-06T07:50:49.164Z,250.00
2022-09-06T07:51:45.009Z,252.00
2022-09-06T07:53:44.984Z,247.00
2022-09-06T07:54:44.950Z,245.00
2022-09-06T07:55:44.924Z,245.00
2022-09-06T07:56:44.905Z,246.00
2022-09-06T07:57:44.915Z,248.00
2022-09-06T07:58:44.891Z,248.00
2022-09-06T07:59:44.871Z,247.00
2022-09-06T08:00:44.862Z,247.00
2022-09-06T08:01:44.865Z,246.00
2022-09-06T08:02:44.830Z,250.00
2022-09-06T08:03:44.860Z,251.00
2022-09-06T08:04:47.617Z,248.00
2022-09-06T08:07:44.766Z,242.00
2022-09-06T08:09:00.325Z,242.00
2022-09-06T08:09:44.731Z,243.00
2022-09-06T08:10:44.723Z,246.00
2022-09-06T08:11:44.703Z,246.00
2022-09-06T08:12:44.741Z,246.00
2022-09-06T08:13:44.660Z,246.00
2022-09-06T08:14:44.652Z,245.00
2022-09-06T08:15:44.654Z,243.00
2022-09-06T08:16:44.845Z,242.00
2022-09-06T08:17:44.602Z,243.00
2022-09-06T08:18:44.729Z,246.00
2022-09-06T08:19:44.602Z,250.00
2022-09-06T08:20:44.573Z,251.00
2022-09-06T08:21:44.597Z,251.00
2022-09-06T08:22:44.554Z,250.00
2022-09-06T08:23:44.565Z,249.00
2022-09-06T08:24:44.533Z,249.00
2022-09-06T08:25:44.521Z,251.00
2022-09-06T08:26:44.519Z,253.00
2022-09-06T08:27:44.474Z,252.00
2022-09-06T08:28:44.501Z,251.00
2022-09-06T08:29:44.439Z,252.00
2022-09-06T08:30:44.442Z,251.00
2022-09-06T08:31:44.486Z,249.00
2022-09-06T08:32:44.457Z,250.00
2022-09-06T08:33:44.429Z,249.00
2022-09-06T08:34:44.386Z,249.00
2022-09-06T08:35:44.382Z,250.00
2022-09-06T08:36:44.349Z,253.00
2022-09-06T08:37:44.349Z,251.00
2022-09-06T08:38:44.340Z,252.00
2022-09-06T08:39:44.378Z,253.00
2022-09-06T08:40:44.306Z,250.00
2022-09-06T08:41:44.311Z,252.00
2022-09-06T08:42:44.302Z,255.00
2022-09-06T08:43:44.618Z,252.00
2022-09-06T08:44:59.750Z,254.00
2022-09-06T08:45:44.316Z,253.00
2022-09-06T08:46:44.297Z,254.00
2022-09-06T08:47:44.254Z,256.00
2022-09-06T08:48:44.210Z,258.00
2022-09-06T08:49:44.179Z,257.00
2022-09-06T08:50:44.189Z,258.00
2022-09-06T08:51:44.160Z,259.00
2022-09-06T08:52:54.484Z,259.00
2022-09-06T08:53:44.147Z,260.00
2022-09-06T08:54:44.133Z,258.00
2022-09-06T08:55:44.118Z,256.00
2022-09-06T08:56:44.117Z,257.00
2022-09-06T08:57:44.105Z,258.00
2022-09-06T08:58:44.200Z,258.00
2022-09-06T08:59:44.183Z,259.00
2022-09-06T09:00:44.143Z,260.00
2022-09-06T09:01:44.125Z,263.00
2022-09-06T09:02:44.065Z,264.00
2022-09-06T09:03:44.046Z,263.00
2022-09-06T09:04:44.372Z,262.00
2022-09-06T09:05:44.100Z,265.00
2022-09-06T09:06:43.982Z,266.00
2022-09-06T09:07:43.954Z,262.00
2022-09-06T09:08:43.943Z,260.00
2022-09-06T09:09:43.930Z,259.00
2022-09-06T09:10:43.913Z,260.00
2022-09-06T09:11:43.934Z,262.00
2022-09-06T09:12:43.894Z,265.00
2022-09-06T09:13:43.882Z,268.00
2022-09-06T09:14:43.867Z,266.00
2022-09-06T09:15:43.850Z,269.00
2022-09-06T09:16:43.911Z,268.00
2022-09-06T09:17:43.844Z,266.00
2022-09-06T09:18:43.810Z,265.00
2022-09-06T09:19:43.775Z,263.00
2022-09-06T09:20:43.834Z,262.00
2022-09-06T09:21:43.774Z,263.00
2022-09-06T09:22:43.802Z,262.00
2022-09-06T09:23:43.725Z,264.00
2022-09-06T09:24:43.745Z,264.00
2022-09-06T09:25:43.701Z,262.00
2022-09-06T09:26:43.736Z,261.00
2022-09-06T09:27:43.674Z,261.00
2022-09-06T09:28:43.721Z,261.00
2022-09-06T09:30:49.534Z,262.00
2022-09-06T09:31:43.732Z,264.00
2022-09-06T09:32:43.646Z,264.00
2022-09-06T09:33:43.620Z,265.00
2022-09-06T09:34:43.622Z,265.00
2022-09-06T09:35:43.634Z,263.00
2022-09-06T09:37:48.695Z,267.00
2022-09-06T09:38:43.562Z,267.00
2022-09-06T09:39:43.562Z,268.00
2022-09-06T09:40:43.528Z,269.00
2022-09-06T09:41:43.510Z,267.00
2022-09-06T09:42:43.515Z,267.00
2022-09-06T09:43:43.473Z,267.00
2022-09-06T09:44:43.539Z,266.00
2022-09-06T09:45:43.491Z,264.00
2022-09-06T09:46:43.497Z,261.00
2022-09-06T09:47:43.505Z,262.00
2022-09-06T09:48:43.485Z,264.00
2022-09-06T09:49:43.391Z,264.00
2022-09-06T09:50:43.371Z,262.00
2022-09-06T09:51:43.370Z,266.00
2022-09-06T09:52:43.410Z,266.00
2022-09-06T09:53:43.363Z,267.00
2022-09-06T09:54:43.360Z,267.00
2022-09-06T09:55:43.320Z,265.00
2022-09-06T09:56:43.314Z,265.00
2022-09-06T09:57:43.301Z,265.00
2022-09-06T09:58:43.288Z,266.00
2022-09-06T09:59:43.259Z,264.00
2022-09-06T10:00:43.417Z,265.00
2022-09-06T10:01:43.237Z,265.00
2022-09-06T10:02:43.222Z,265.00
2022-09-06T10:04:43.722Z,264.00
2022-09-06T10:05:45.905Z,263.00
2022-09-06T10:07:43.145Z,265.00
2022-09-06T10:08:43.149Z,262.00
2022-09-06T10:09:43.161Z,262.00
2022-09-06T10:10:43.122Z,263.00
2022-09-06T10:11:43.106Z,265.00
2022-09-06T10:12:43.117Z,265.00
2022-09-06T10:13:43.073Z,260.00
2022-09-06T10:14:43.093Z,259.00
2022-09-06T10:15:43.130Z,259.00
2022-09-06T10:16:43.047Z,258.00
2022-09-06T10:17:43.022Z,257.00
2022-09-06T10:18:43.039Z,256.00
2022-09-06T10:19:43.023Z,257.00
2022-09-06T10:20:43.015Z,257.00
2022-09-06T10:21:42.973Z,257.00
2022-09-06T10:22:42.985Z,257.00
2022-09-06T10:24:42.954Z,255.00
2022-09-06T10:25:44.986Z,256.00
2022-09-06T10:26:42.945Z,254.00
2022-09-06T10:27:55.664Z,254.00
2022-09-06T10:28:42.902Z,253.00
2022-09-06T10:29:42.854Z,254.00
2022-09-06T10:30:42.883Z,253.00
2022-09-06T10:31:42.882Z,255.00
2022-09-06T10:32:42.901Z,256.00
2022-09-06T10:33:42.826Z,256.00
2022-09-06T10:34:42.810Z,253.00
2022-09-06T10:35:42.807Z,254.00
2022-09-06T10:36:42.779Z,256.00
2022-09-06T10:37:42.762Z,256.00
2022-09-06T10:38:42.765Z,254.00
2022-09-06T10:39:42.805Z,252.00
2022-09-06T10:40:42.728Z,252.00
2022-09-06T10:41:42.707Z,252.00
2022-09-06T10:42:42.702Z,250.00
2022-09-06T10:43:42.706Z,246.00
2022-09-06T10:44:42.672Z,246.00
2022-09-06T10:45:42.675Z,247.00
2022-09-06T10:46:42.666Z,248.00
2022-09-06T10:47:42.638Z,248.00
2022-09-06T10:48:42.649Z,250.00
2022-09-06T10:49:42.585Z,250.00
2022-09-06T10:50:42.595Z,248.00
2022-09-06T10:51:42.590Z,250.00
2022-09-06T10:52:42.565Z,251.00
2022-09-06T10:53:42.533Z,250.00
2022-09-06T10:54:42.538Z,251.00
2022-09-06T10:55:46.221Z,252.00
2022-09-06T10:56:42.510Z,254.00
2022-09-06T10:59:42.490Z,253.00
2022-09-06T11:00:42.461Z,255.00
2022-09-06T11:01:42.537Z,258.00
2022-09-06T11:02:42.680Z,258.00
2022-09-06T11:04:00.362Z,259.00
2022-09-06T11:05:42.427Z,258.00
2022-09-06T11:06:42.364Z,260.00
2022-09-06T11:07:42.760Z,262.00
2022-09-06T11:09:42.334Z,266.00
2022-09-06T11:10:42.375Z,266.00
2022-09-06T11:11:42.355Z,266.00
2022-09-06T11:12:42.290Z,267.00
2022-09-06T11:13:42.286Z,266.00
2022-09-06T11:14:42.289Z,265.00
2022-09-06T11:15:42.282Z,264.00
2022-09-06T11:16:42.253Z,260.00
2022-09-06T11:17:42.247Z,260.00
2022-09-06T11:18:42.229Z,255.00
2022-09-06T11:19:42.226Z,258.00
2022-09-06T11:20:42.185Z,261.00
2022-09-06T11:21:42.179Z,270.00
2022-09-06T11:22:42.156Z,289.00
2022-09-06T11:23:42.146Z,277.00
2022-09-06T11:24:42.181Z,279.00
2022-09-06T11:25:42.129Z,284.00
2022-09-06T11:26:42.119Z,278.00
2022-09-06T11:27:42.112Z,275.00
2022-09-06T11:28:42.096Z,273.00
2022-09-06T11:29:42.089Z,271.00
2022-09-06T11:30:42.129Z,274.00
2022-09-06T11:32:42.032Z,276.00
2022-09-06T11:33:42.023Z,275.00
2022-09-06T11:34:42.007Z,273.00
2022-09-06T11:35:42.010Z,273.00
2022-09-06T11:36:41.998Z,272.00
2022-09-06T11:37:42.017Z,272.00
2022-09-06T11:38:41.949Z,271.00
2022-09-06T11:40:41.981Z,268.00
2022-09-06T11:41:41.931Z,268.00
2022-09-06T11:42:41.952Z,267.00
2022-09-06T11:43:41.935Z,266.00
2022-09-06T11:44:41.936Z,264.00
2022-09-06T11:45:41.884Z,263.00
2022-09-06T11:46:41.885Z,262.00
2022-09-06T11:47:41.848Z,262.00
2022-09-06T11:48:41.828Z,261.00
2022-09-06T11:49:41.853Z,258.00
2022-09-06T11:50:41.807Z,257.00
2022-09-06T11:51:41.808Z,258.00
2022-09-06T11:52:41.772Z,257.00
2022-09-06T11:53:41.788Z,255.00
2022-09-06T11:54:41.734Z,255.00
2022-09-06T11:55:41.746Z,253.00
2022-09-06T11:56:41.726Z,253.00
2022-09-06T11:57:41.903Z,253.00
2022-09-06T11:58:41.691Z,255.00
2022-09-06T11:59:41.684Z,256.00
2022-09-06T12:00:41.694Z,255.00
2022-09-06T12:01:41.645Z,253.00
2022-09-06T12:02:41.754Z,253.00
2022-09-06T12:04:41.612Z,251.00
2022-09-06T12:05:41.633Z,252.00
2022-09-06T12:06:41.580Z,251.00
2022-09-06T12:07:41.591Z,249.00
2022-09-06T12:08:41.599Z,253.00
2022-09-06T12:09:41.559Z,253.00
2022-09-06T12:10:41.586Z,251.00
2022-09-06T12:11:41.509Z,250.00
2022-09-06T12:12:41.506Z,251.00
2022-09-06T12:13:41.505Z,257.00
2022-09-06T12:14:41.485Z,261.00
2022-09-06T12:15:41.542Z,261.00
2022-09-06T12:16:41.455Z,260.00
2022-09-06T12:17:41.473Z,262.00
2022-09-06T12:18:41.433Z,259.00
2022-09-06T12:19:44.292Z,256.00
2022-09-06T12:20:41.419Z,256.00
2022-09-06T12:21:41.413Z,257.00
2022-09-06T12:22:41.418Z,254.00
2022-09-06T12:23:41.539Z,252.00
2022-09-06T12:24:41.636Z,252.00
2022-09-06T12:25:41.343Z,254.00
2022-09-06T12:26:41.341Z,256.00
2022-09-06T12:27:41.338Z,256.00
2022-09-06T12:28:41.309Z,254.00
2022-09-06T12:29:41.396Z,252.00
2022-09-06T12:30:41.259Z,251.00
2022-09-06T12:31:41.366Z,252.00
2022-09-06T12:32:41.310Z,254.00
2022-09-06T12:33:41.245Z,252.00
2022-09-06T12:34:41.211Z,252.00
2022-09-06T12:35:56.875Z,252.00
2022-09-06T12:36:41.326Z,254.00
2022-09-06T12:37:41.192Z,254.00
2022-09-06T12:38:41.181Z,255.00
2022-09-06T12:39:41.220Z,256.00
2022-09-06T12:40:41.153Z,255.00
2022-09-06T12:41:43.509Z,257.00
2022-09-06T12:42:41.116Z,257.00
2022-09-06T12:43:41.130Z,258.00
2022-09-06T12:44:41.116Z,259.00
2022-09-06T12:45:41.239Z,258.00
2022-09-06T12:46:41.180Z,258.00
2022-09-06T12:47:41.107Z,255.00
2022-09-06T12:48:41.113Z,254.00
2022-09-06T12:49:41.067Z,252.00
2022-09-06T12:50:41.023Z,249.00
2022-09-06T12:51:41.058Z,248.00
2022-09-06T12:52:41.005Z,249.00